Terminal Aerodrome Forecast
Issued by NWS Topeka, KS

Home | Current Version | Previous Version | Graphics & Text | Print | Product List | Glossary Off
Versions: 1 2 3 4 5 6 7 8 9 10 11 12 13 14 15 16 17 18 19

000
FTUS43 KTOP 252300
TAFTOP
TAF
KTOP 252321Z 2600/2624 01011KT P6SM OVC012
     FM260400 05010KT 6SM BR OVC007
     FM261700 07012KT P6SM BKN020
     FM262100 07013G19KT P6SM SCT030=

USA.gov is the U.S. government's official web portal to all federal, state and local government web resources and services.